Montreal/dorval

CWTQ · Quebec, 加拿大

罗盘
风向 的 风向 160°
风: 8 kt, 3 beaufort

添加一条跑道以查看侧风和逆风信息。

添置 跑道
0 ft 6.000 12.000 18.000 24.000 30.000
Cloud Cloud
FEW 2.000
Cloud Cloud
FEW 15.000
Cloud Cloud Cloud Cloud
SCT 24.000
METAR CYUL 231000Z 16008KT 30SM FEW020 FEW150 SCT240 03/M03 A2999 RMK SC1AC1CI2 SC TR SLP158

METAR Montreal/dorval - CWTQ

Montreal/dorval是,加拿大中的未知。 该机场位于纬度45,46667和经度-73,75000。 本场的ICAO机场代码为CWTQ。 机场在Montreal FIR中。

该航空气象观测是针对蒙特利尔皮埃尔·埃利奥特·特鲁多国际机场在2024年4月23日 06:00, 当地时间进行的。

机场观察

风向为160°,速度为8 kt。

可见度为30 mi。

有几云在2.000 ft的高度, 几云在15.000 ft的高度 和 疏云,零星散落的云朵在24.000 ft的高度。 没有观察到天花板。

温度为3 °C,阵风为-3 °C。 露点为-3 °C,相对湿度为65%。 海平面上的气压为29,99 inHg (QNH)。

白天

今天,太阳从05:54升起,在19:51降落。 这适用于Montreal/dorval,世界夏令时可能有所不同。 当地时间与世界标准时间之间的时差为-4 小时。 夏令时目前正在进行中。

公司介绍

我们没有关于这个机场的公司信息。

体会

到Vliegles.nl去找飞行课程,跳伞和其他飞行体验。 浏览页面,了解Montreal/dorval附近所有可用的活动。 你也可以使用搜索功能来寻找你所在地附近的特定飞行课程、跳伞或其他飞行体验。

乌云

2.000 ft FEW 几云
15.000 ft FEW 几云
24.000 ft SCT 疏云,零星散落的云朵

温度 & 天气

温度 3 °C
露点 -3 °C
相对湿度 65%
风寒 -3 °C
Kp-index 1 (0-9)

评论

SLP158海平面压力为30,00 inHg (30,00 inHg)
SC1AC1CI2 SC TR

白天

日出
05:54
中午
12:53
日落
19:51 (13:07)

小工具

你想在你的网站上有一个关于Montreal/dorval的当前航空天气(METAR)的小部件吗?

显示HTML代码
报告变更